createdAt,value
2018-09-21T00:00:30.457Z,7.57
2018-09-21T00:02:59.292Z,7.27
2018-09-21T00:05:27.888Z,6.93
2018-09-21T00:07:56.684Z,7.03
2018-09-21T00:10:25.597Z,6.83
2018-09-21T00:12:54.445Z,7.63
2018-09-21T00:15:23.346Z,7.33
2018-09-21T00:17:52.218Z,6.83
2018-09-21T00:20:21.181Z,8.17
2018-09-21T00:22:50.026Z,6.70
2018-09-21T00:25:18.888Z,7.33
2018-09-21T00:27:47.725Z,6.97
2018-09-21T00:30:16.577Z,6.27
2018-09-21T00:32:45.499Z,7.07
2018-09-21T00:35:14.339Z,8.70
2018-09-21T00:37:43.248Z,8.03
2018-09-21T00:40:12.716Z,6.23
2018-09-21T00:42:41.536Z,7.20
2018-09-21T00:45:10.469Z,7.37
2018-09-21T00:47:39.332Z,7.10
2018-09-21T00:50:08.225Z,6.73
2018-09-21T00:52:37.069Z,6.47
2018-09-21T00:55:06.129Z,6.17
2018-09-21T00:57:34.952Z,5.60
2018-09-21T01:00:03.955Z,5.57
2018-09-21T01:02:32.784Z,6.37
2018-09-21T01:05:01.658Z,6.03
2018-09-21T01:07:30.527Z,6.77
2018-09-21T01:09:59.376Z,6.17
2018-09-21T01:12:28.277Z,6.40
2018-09-21T01:14:57.148Z,6.23
2018-09-21T01:17:26.004Z,7.27
2018-09-21T01:19:55.067Z,6.63
2018-09-21T01:22:23.937Z,5.63
2018-09-21T01:24:52.768Z,6.20
2018-09-21T01:27:21.612Z,7.03
2018-09-21T01:29:50.445Z,6.20
2018-09-21T01:32:19.296Z,6.80
2018-09-21T01:34:48.135Z,7.10
2018-09-21T01:37:17.050Z,7.07
2018-09-21T01:39:45.892Z,8.10
2018-09-21T01:42:14.781Z,8.13
2018-09-21T01:44:43.635Z,9.47
2018-09-21T01:47:12.509Z,9.07
2018-09-21T01:49:41.406Z,8.67
2018-09-21T01:52:10.297Z,9.23
2018-09-21T01:54:39.149Z,9.60
2018-09-21T01:57:08.025Z,8.57
2018-09-21T01:59:36.901Z,8.70
2018-09-21T02:02:05.794Z,8.47
2018-09-21T02:04:39.807Z,7.43
2018-09-21T02:07:10.248Z,7.10
2018-09-21T02:09:39.266Z,6.83
2018-09-21T02:12:08.136Z,6.70
2018-09-21T02:14:36.996Z,7.17
2018-09-21T02:17:05.862Z,8.33
2018-09-21T02:19:34.799Z,7.67
2018-09-21T02:22:03.646Z,7.40
2018-09-21T02:24:32.490Z,7.57
2018-09-21T02:27:01.350Z,7.93
2018-09-21T02:29:30.197Z,7.77
2018-09-21T02:31:59.080Z,7.57
2018-09-21T02:34:27.929Z,7.60
2018-09-21T02:36:56.817Z,7.23
2018-09-21T02:39:25.664Z,8.10
2018-09-21T02:41:54.561Z,7.93
2018-09-21T02:44:23.422Z,7.57
2018-09-21T02:46:52.268Z,7.47
2018-09-21T02:49:21.132Z,7.77
2018-09-21T02:51:50.071Z,7.90
2018-09-21T02:54:18.910Z,7.90
2018-09-21T02:56:47.806Z,7.53
2018-09-21T02:59:16.673Z,7.70
2018-09-21T03:01:45.514Z,7.87
2018-09-21T03:04:14.420Z,7.77
2018-09-21T03:06:43.281Z,7.33
2018-09-21T03:09:12.177Z,6.83
2018-09-21T03:11:41.053Z,7.63
2018-09-21T03:14:09.981Z,7.90
2018-09-21T03:16:38.853Z,7.53
2018-09-21T03:19:07.745Z,7.63
2018-09-21T03:21:36.671Z,7.80
2018-09-21T03:24:05.673Z,7.93
2018-09-21T03:26:35.537Z,7.97
2018-09-21T03:29:04.492Z,7.40
2018-09-21T03:31:33.640Z,8.33
2018-09-21T03:34:02.528Z,8.47
2018-09-21T03:36:31.476Z,7.23
2018-09-21T03:39:00.324Z,8.50
2018-09-21T03:41:29.188Z,8.47
2018-09-21T03:43:58.062Z,8.07
2018-09-21T03:46:26.930Z,8.00
2018-09-21T03:48:55.761Z,7.50
2018-09-21T03:51:24.593Z,8.57
2018-09-21T03:53:53.466Z,7.40
2018-09-21T03:56:22.333Z,7.93
2018-09-21T03:58:51.210Z,8.40
2018-09-21T04:01:20.045Z,7.47
2018-09-21T04:03:48.931Z,7.83
2018-09-21T04:06:17.796Z,7.33
2018-09-21T04:08:46.637Z,8.27
2018-09-21T04:11:15.579Z,7.77
2018-09-21T04:13:44.419Z,8.67
2018-09-21T04:16:13.284Z,8.30
2018-09-21T04:18:42.125Z,7.70
2018-09-21T04:21:12.014Z,7.80
2018-09-21T04:23:40.859Z,8.60
2018-09-21T04:26:09.879Z,8.67
2018-09-21T04:28:38.705Z,8.00
2018-09-21T04:31:07.577Z,8.77
2018-09-21T04:33:36.497Z,8.37
2018-09-21T04:36:05.402Z,9.30
2018-09-21T04:38:34.380Z,8.87
2018-09-21T04:41:03.241Z,8.40
2018-09-21T04:43:32.244Z,8.20
2018-09-21T04:46:01.462Z,8.87
2018-09-21T04:48:30.260Z,9.00
2018-09-21T04:50:59.155Z,7.97
2018-09-21T04:53:28.728Z,7.73
2018-09-21T04:55:57.786Z,8.77
2018-09-21T04:58:26.649Z,7.87
2018-09-21T05:00:55.515Z,7.63
2018-09-21T05:03:24.366Z,8.43
2018-09-21T05:05:53.365Z,7.77
2018-09-21T05:08:22.255Z,7.70
2018-09-21T05:10:51.117Z,8.63
2018-09-21T05:13:19.997Z,9.03
2018-09-21T05:15:49.060Z,8.57
2018-09-21T05:18:17.942Z,8.13
2018-09-21T05:20:46.911Z,7.67
2018-09-21T05:23:15.776Z,8.00
2018-09-21T05:25:44.710Z,8.03
2018-09-21T05:28:14.542Z,7.97
2018-09-21T05:30:43.409Z,7.50
2018-09-21T05:33:12.250Z,7.60
2018-09-21T05:35:41.113Z,7.63
2018-09-21T05:38:10.003Z,8.30
2018-09-21T05:40:39.039Z,8.00
2018-09-21T05:43:07.965Z,7.30
2018-09-21T05:45:36.816Z,8.50
2018-09-21T05:48:05.650Z,7.83
2018-09-21T05:50:34.513Z,8.73
2018-09-21T05:53:03.373Z,7.53
2018-09-21T05:55:32.198Z,7.77
2018-09-21T05:58:01.033Z,7.83
2018-09-21T06:00:29.946Z,9.13
2018-09-21T06:02:58.945Z,8.73
2018-09-21T06:05:27.747Z,8.17
2018-09-21T06:07:56.580Z,8.53
2018-09-21T06:10:25.479Z,8.90
2018-09-21T06:12:54.332Z,9.50
2018-09-21T06:15:23.219Z,8.07
2018-09-21T06:17:52.060Z,8.43
2018-09-21T06:20:20.897Z,8.17
2018-09-21T06:22:49.829Z,7.90
2018-09-21T06:25:18.641Z,7.33
2018-09-21T06:27:47.528Z,7.70
2018-09-21T06:30:16.423Z,7.37
2018-09-21T06:32:45.377Z,7.80
2018-09-21T06:35:14.246Z,7.80
2018-09-21T06:37:43.107Z,7.20
2018-09-21T06:40:12.016Z,7.43
2018-09-21T06:42:40.961Z,7.73
2018-09-21T06:45:09.797Z,7.80
2018-09-21T06:47:38.677Z,7.30
2018-09-21T06:50:07.621Z,7.33
2018-09-21T06:52:36.520Z,7.77
2018-09-21T06:55:05.642Z,9.07
2018-09-21T06:57:34.510Z,7.83
2018-09-21T07:00:03.439Z,7.83
2018-09-21T07:02:32.352Z,9.47
2018-09-21T07:05:06.425Z,7.43
2018-09-21T07:07:35.457Z,7.80
2018-09-21T07:10:04.842Z,8.10
2018-09-21T07:12:33.636Z,8.00
2018-09-21T07:15:02.633Z,27.87
2018-09-21T07:17:31.536Z,20.67
2018-09-21T07:20:00.520Z,13.57
2018-09-21T07:22:29.406Z,19.80
2018-09-21T07:24:58.244Z,25.03
2018-09-21T07:27:27.242Z,10.23
2018-09-21T07:29:56.069Z,15.70
2018-09-21T07:32:25.068Z,9.53
2018-09-21T07:34:54.489Z,9.63
2018-09-21T07:37:23.434Z,9.67
2018-09-21T07:39:52.257Z,9.03
2018-09-21T07:42:21.262Z,10.87
2018-09-21T07:44:50.225Z,7.97
2018-09-21T07:47:19.083Z,8.10
2018-09-21T07:49:47.949Z,8.27
2018-09-21T07:52:16.785Z,8.73
2018-09-21T07:54:45.639Z,11.00
2018-09-21T07:57:14.489Z,7.83
2018-09-21T07:59:43.326Z,8.00
2018-09-21T08:02:12.161Z,9.03
2018-09-21T08:04:41.072Z,7.50
2018-09-21T08:07:10.048Z,8.03
2018-09-21T08:09:38.924Z,7.90
2018-09-21T08:12:07.763Z,8.03
2018-09-21T08:14:36.680Z,8.70
2018-09-21T08:17:05.896Z,8.30
2018-09-21T08:19:34.799Z,8.23
2018-09-21T08:22:03.557Z,8.20
2018-09-21T08:24:32.445Z,7.20
2018-09-21T08:27:01.327Z,7.40
2018-09-21T08:29:30.182Z,8.53
2018-09-21T08:31:59.058Z,7.70
2018-09-21T08:34:27.925Z,7.40
2018-09-21T08:36:56.751Z,6.83
2018-09-21T08:39:26.700Z,7.23
2018-09-21T08:41:55.692Z,7.50
2018-09-21T08:44:24.600Z,6.27
2018-09-21T08:46:53.468Z,6.47
2018-09-21T08:49:22.304Z,6.57
2018-09-21T08:51:51.186Z,6.00
2018-09-21T08:54:20.027Z,6.17
2018-09-21T08:56:48.930Z,6.10
2018-09-21T08:59:17.797Z,5.77
2018-09-21T09:01:46.644Z,6.90
2018-09-21T09:04:15.517Z,6.30
2018-09-21T09:06:44.383Z,6.37
2018-09-21T09:09:13.299Z,6.57
2018-09-21T09:11:42.302Z,5.83
2018-09-21T09:14:23.681Z,5.43
2018-09-21T09:16:52.232Z,4.60
2018-09-21T09:19:20.690Z,6.27
2018-09-21T09:21:49.168Z,6.20
2018-09-21T09:24:17.639Z,5.10
2018-09-21T09:26:46.099Z,5.53
2018-09-21T09:29:14.583Z,5.30
2018-09-21T09:31:43.032Z,4.83
2018-09-21T09:34:11.560Z,5.73
2018-09-21T09:36:40.044Z,5.03
2018-09-21T09:39:09.870Z,5.20
2018-09-21T09:41:38.363Z,5.10
2018-09-21T09:44:06.875Z,5.10
2018-09-21T09:46:35.365Z,5.50
2018-09-21T09:49:04.018Z,5.53
2018-09-21T09:51:32.348Z,5.83
2018-09-21T09:54:01.166Z,5.87
2018-09-21T09:56:29.622Z,5.20
2018-09-21T09:58:58.098Z,5.33
2018-09-21T10:01:26.588Z,5.23
2018-09-21T10:03:55.122Z,5.87
2018-09-21T10:06:23.526Z,5.77
2018-09-21T10:08:51.978Z,5.37
2018-09-21T10:11:20.469Z,5.00
2018-09-21T10:13:48.929Z,5.37
2018-09-21T10:16:17.434Z,5.17
2018-09-21T10:18:45.945Z,4.20
2018-09-21T10:21:14.434Z,4.60
2018-09-21T10:23:42.900Z,5.37
2018-09-21T10:26:11.662Z,4.53
2018-09-21T10:28:40.441Z,4.43
2018-09-21T10:31:08.726Z,4.97
2018-09-21T10:33:37.299Z,4.73
2018-09-21T10:36:05.708Z,4.80
2018-09-21T10:38:34.185Z,5.30
2018-09-21T10:41:02.657Z,5.50
2018-09-21T10:43:31.122Z,5.37
2018-09-21T10:45:59.646Z,5.00
2018-09-21T10:48:28.116Z,4.90
2018-09-21T10:50:57.531Z,5.33
2018-09-21T10:53:26.089Z,5.13
2018-09-21T10:55:54.580Z,4.43
2018-09-21T10:58:23.057Z,4.67
2018-09-21T11:00:51.590Z,4.40
2018-09-21T11:03:20.082Z,4.30
2018-09-21T11:05:48.608Z,39.40
2018-09-21T11:08:17.081Z,34.73
2018-09-21T11:10:45.596Z,14.77
2018-09-21T11:13:14.691Z,16.50
2018-09-21T11:15:43.384Z,36.53
2018-09-21T11:18:11.962Z,19.90
2018-09-21T11:20:40.453Z,20.37
2018-09-21T11:23:08.988Z,12.33
2018-09-21T11:25:37.471Z,10.23
2018-09-21T11:28:05.961Z,6.43
2018-09-21T11:30:34.429Z,5.73
2018-09-21T11:33:03.120Z,8.77
2018-09-21T11:35:31.556Z,5.40
2018-09-21T11:38:00.109Z,6.50
2018-09-21T11:40:28.650Z,5.70
2018-09-21T11:42:57.181Z,4.93
2018-09-21T11:45:25.648Z,6.67
2018-09-21T11:47:54.163Z,5.20
2018-09-21T11:50:22.644Z,4.57
2018-09-21T11:52:51.137Z,5.03
2018-09-21T11:55:20.063Z,5.10
2018-09-21T11:57:48.514Z,5.27
2018-09-21T12:00:16.976Z,4.73
2018-09-21T12:02:45.455Z,3.97
2018-09-21T12:05:13.945Z,4.47
2018-09-21T12:07:42.428Z,4.20
2018-09-21T12:10:10.896Z,4.30
2018-09-21T12:12:39.389Z,4.07
2018-09-21T12:15:07.895Z,3.63
2018-09-21T12:17:36.392Z,3.57
2018-09-21T12:20:05.233Z,4.00
2018-09-21T12:22:33.751Z,3.47
2018-09-21T12:25:03.032Z,3.33
2018-09-21T12:27:31.479Z,4.30
2018-09-21T12:29:59.946Z,3.70
2018-09-21T12:32:28.437Z,3.53
2018-09-21T12:34:56.906Z,3.60
2018-09-21T12:37:25.386Z,4.03
2018-09-21T12:39:53.924Z,3.70
2018-09-21T12:42:22.483Z,3.40
2018-09-21T12:44:50.888Z,3.87
2018-09-21T12:47:19.368Z,3.60
2018-09-21T12:49:47.832Z,3.67
2018-09-21T12:52:16.314Z,3.77
2018-09-21T12:54:44.798Z,4.03
2018-09-21T12:57:13.297Z,3.40
2018-09-21T12:59:41.801Z,6.33
2018-09-21T13:02:10.460Z,4.23
2018-09-21T13:04:38.943Z,3.43
2018-09-21T13:07:07.405Z,3.60
2018-09-21T13:09:36.516Z,4.10
2018-09-21T13:12:05.934Z,3.40
2018-09-21T13:14:34.422Z,3.37
2018-09-21T13:17:02.877Z,3.67
2018-09-21T13:19:31.359Z,3.60
2018-09-21T13:21:59.822Z,3.30
2018-09-21T13:24:28.326Z,3.30
2018-09-21T13:26:56.793Z,3.40
2018-09-21T13:29:25.252Z,3.73
2018-09-21T13:31:53.708Z,3.87
2018-09-21T13:34:22.185Z,4.23
2018-09-21T13:36:50.725Z,5.23
2018-09-21T13:39:19.236Z,4.33
2018-09-21T13:41:47.689Z,6.20
2018-09-21T13:44:16.161Z,3.33
2018-09-21T13:46:44.634Z,3.10
2018-09-21T13:49:13.125Z,3.23
2018-09-21T13:51:41.590Z,4.07
2018-09-21T13:54:10.086Z,4.33
2018-09-21T13:56:38.571Z,3.43
2018-09-21T13:59:07.065Z,3.73
2018-09-21T14:01:35.490Z,3.73
2018-09-21T14:04:03.988Z,3.00
2018-09-21T14:06:32.508Z,2.80
2018-09-21T14:09:00.986Z,2.97
2018-09-21T14:11:29.737Z,4.10
2018-09-21T14:13:58.645Z,3.43
2018-09-21T14:16:28.102Z,2.70
2018-09-21T14:18:56.888Z,2.00
2018-09-21T14:21:25.408Z,2.00
2018-09-21T14:23:53.861Z,1.97
2018-09-21T14:26:22.364Z,1.60
2018-09-21T14:28:50.848Z,1.60
2018-09-21T14:31:19.297Z,1.77
2018-09-21T14:33:47.788Z,1.30
2018-09-21T14:36:16.272Z,1.70
2018-09-21T14:38:44.732Z,2.30
2018-09-21T14:41:13.223Z,1.87
2018-09-21T14:43:41.713Z,2.20
2018-09-21T14:46:10.192Z,1.70
2018-09-21T14:48:38.658Z,2.10
2018-09-21T14:51:07.157Z,2.10
2018-09-21T14:53:36.609Z,2.13
2018-09-21T14:56:05.065Z,2.20
2018-09-21T14:58:33.516Z,2.67
2018-09-21T15:01:01.983Z,2.00
2018-09-21T15:03:30.467Z,2.40
2018-09-21T15:05:59.928Z,2.47
2018-09-21T15:08:28.574Z,3.30
2018-09-21T15:10:57.031Z,2.93
2018-09-21T15:13:25.477Z,3.00
2018-09-21T15:15:53.976Z,4.27
2018-09-21T15:18:22.453Z,4.57
2018-09-21T15:20:50.951Z,2.63
2018-09-21T15:23:19.437Z,3.10
2018-09-21T15:25:47.905Z,2.73
2018-09-21T15:28:16.369Z,1.83
2018-09-21T15:30:44.856Z,2.20
2018-09-21T15:33:13.324Z,1.87
2018-09-21T15:35:41.793Z,2.37
2018-09-21T15:38:10.453Z,2.37
2018-09-21T15:40:38.931Z,2.50
2018-09-21T15:43:07.418Z,2.73
2018-09-21T15:45:35.965Z,2.07
2018-09-21T15:48:04.415Z,2.53
2018-09-21T15:50:32.921Z,3.00
2018-09-21T15:53:01.449Z,2.90
2018-09-21T15:55:29.916Z,4.20
2018-09-21T15:57:58.404Z,4.33
2018-09-21T16:00:26.935Z,4.30
2018-09-21T16:02:55.452Z,4.13
2018-09-21T16:05:24.057Z,3.53
2018-09-21T16:07:52.524Z,3.70
2018-09-21T16:10:21.014Z,2.90
2018-09-21T16:12:49.514Z,2.10
2018-09-21T16:15:18.010Z,2.07
2018-09-21T16:17:46.538Z,2.10
2018-09-21T16:20:15.066Z,2.50
2018-09-21T16:22:43.688Z,2.57
2018-09-21T16:25:12.161Z,2.83
2018-09-21T16:27:40.734Z,2.80
2018-09-21T16:30:09.659Z,2.73
2018-09-21T16:32:38.469Z,2.70
2018-09-21T16:35:07.248Z,2.77
2018-09-21T16:37:35.773Z,2.00
2018-09-21T16:40:04.249Z,2.33
2018-09-21T16:42:32.719Z,2.60
2018-09-21T16:45:01.194Z,2.83
2018-09-21T16:47:29.653Z,2.50
2018-09-21T16:49:58.125Z,3.47
2018-09-21T16:52:26.651Z,3.37
2018-09-21T16:54:55.110Z,2.63
2018-09-21T16:57:23.633Z,2.77
2018-09-21T16:59:52.047Z,2.73
2018-09-21T17:02:20.530Z,2.97
2018-09-21T17:04:49.060Z,3.57
2018-09-21T17:07:17.914Z,3.10
2018-09-21T17:09:47.999Z,2.60
2018-09-21T17:12:16.998Z,3.70
2018-09-21T17:14:45.450Z,2.97
2018-09-21T17:17:13.981Z,2.90
2018-09-21T17:19:42.475Z,3.23
2018-09-21T17:22:10.908Z,3.03
2018-09-21T17:24:39.367Z,4.17
2018-09-21T17:27:07.867Z,3.10
2018-09-21T17:29:36.377Z,3.10
2018-09-21T17:32:04.864Z,3.90
2018-09-21T17:34:33.336Z,4.10
2018-09-21T17:37:01.897Z,3.60
2018-09-21T17:39:30.281Z,3.57
2018-09-21T17:41:58.767Z,3.63
2018-09-21T17:44:27.219Z,3.50
2018-09-21T17:46:55.779Z,3.03
2018-09-21T17:49:24.211Z,4.23
2018-09-21T17:51:52.723Z,3.53
2018-09-21T17:54:21.237Z,4.00
2018-09-21T17:56:49.732Z,3.47
2018-09-21T17:59:18.239Z,3.47
2018-09-21T18:01:46.715Z,3.80
2018-09-21T18:04:15.197Z,3.53
2018-09-21T18:06:43.753Z,3.57
2018-09-21T18:09:12.255Z,4.37
2018-09-21T18:11:40.722Z,4.77
2018-09-21T18:14:09.245Z,3.03
2018-09-21T18:16:37.705Z,3.20
2018-09-21T18:19:06.205Z,2.83
2018-09-21T18:21:34.688Z,3.30
2018-09-21T18:24:03.174Z,3.70
2018-09-21T18:26:31.657Z,3.70
2018-09-21T18:29:00.137Z,3.30
2018-09-21T18:31:28.717Z,3.50
2018-09-21T18:33:57.277Z,4.27
2018-09-21T18:36:25.969Z,3.67
2018-09-21T18:38:54.505Z,3.60
2018-09-21T18:41:23.002Z,2.70
2018-09-21T18:43:51.517Z,2.90
2018-09-21T18:46:20.214Z,3.10
2018-09-21T18:48:48.790Z,2.90
2018-09-21T18:51:17.277Z,5.30
2018-09-21T18:53:45.785Z,19.37
2018-09-21T18:56:14.306Z,18.07
2018-09-21T18:58:42.833Z,13.20
2018-09-21T19:01:11.353Z,13.63
2018-09-21T19:03:40.766Z,16.03
2018-09-21T19:06:09.361Z,5.67
2018-09-21T19:08:37.887Z,7.77
2018-09-21T19:11:06.565Z,4.83
2018-09-21T19:13:35.080Z,5.77
2018-09-21T19:16:03.812Z,5.10
2018-09-21T19:18:32.605Z,6.40
2018-09-21T19:21:01.104Z,4.00
2018-09-21T19:23:29.577Z,3.80
2018-09-21T19:25:58.066Z,11.13
2018-09-21T19:28:26.565Z,25.80
2018-09-21T19:30:56.396Z,44.70
2018-09-21T19:33:25.238Z,34.93
2018-09-21T19:35:53.777Z,22.07
2018-09-21T19:38:23.365Z,7.33
2018-09-21T19:40:52.356Z,7.27
2018-09-21T19:43:22.530Z,8.13
2018-09-21T19:45:51.158Z,5.67
2018-09-21T19:48:20.693Z,6.07
2018-09-21T19:50:50.086Z,6.67
2018-09-21T19:53:19.216Z,6.20
2018-09-21T19:55:48.119Z,5.07
2018-09-21T19:58:16.688Z,4.03
2018-09-21T20:00:45.145Z,3.97
2018-09-21T20:03:14.027Z,3.80
2018-09-21T20:05:42.546Z,2.93
2018-09-21T20:08:12.350Z,3.27
2018-09-21T20:10:41.147Z,2.90
2018-09-21T20:13:09.768Z,2.87
2018-09-21T20:15:38.225Z,3.23
2018-09-21T20:18:07.134Z,6.57
2018-09-21T20:20:35.610Z,21.77
2018-09-21T20:23:04.085Z,49.30
2018-09-21T20:25:32.634Z,76.03
2018-09-21T20:28:01.120Z,9.87
2018-09-21T20:30:35.120Z,13.47
2018-09-21T20:33:08.918Z,10.30
2018-09-21T20:35:37.685Z,6.07
2018-09-21T20:38:06.157Z,14.00
2018-09-21T20:40:34.655Z,6.07
2018-09-21T20:43:03.160Z,6.63
2018-09-21T20:45:31.724Z,5.67
2018-09-21T20:48:00.280Z,6.50
2018-09-21T20:50:28.977Z,6.23
2018-09-21T20:52:57.518Z,5.90
2018-09-21T20:55:26.052Z,4.73
2018-09-21T20:57:55.627Z,4.67
2018-09-21T21:00:24.240Z,6.97
2018-09-21T21:02:52.781Z,6.10
2018-09-21T21:05:21.585Z,6.00
2018-09-21T21:07:50.154Z,4.90
2018-09-21T21:10:18.652Z,5.27
2018-09-21T21:12:47.211Z,4.07
2018-09-21T21:15:15.849Z,4.23
2018-09-21T21:17:44.316Z,4.00
2018-09-21T21:20:12.803Z,4.60
2018-09-21T21:22:41.305Z,4.03
2018-09-21T21:25:09.838Z,4.10
2018-09-21T21:27:38.718Z,3.43
2018-09-21T21:30:07.312Z,3.63
2018-09-21T21:32:35.962Z,3.70
2018-09-21T21:35:04.671Z,3.77
2018-09-21T21:37:33.238Z,3.77
2018-09-21T21:40:01.822Z,18.47
2018-09-21T21:42:30.608Z,39.87
2018-09-21T21:44:59.805Z,27.40
2018-09-21T21:47:28.508Z,35.10
2018-09-21T21:49:57.015Z,23.03
2018-09-21T21:52:25.493Z,13.70
2018-09-21T21:54:54.293Z,16.07
2018-09-21T21:57:22.988Z,8.83
2018-09-21T21:59:51.564Z,6.70
2018-09-21T22:02:20.124Z,5.47
2018-09-21T22:04:48.672Z,4.00
2018-09-21T22:07:17.171Z,3.83
2018-09-21T22:09:45.629Z,3.53
2018-09-21T22:12:19.502Z,2.60
2018-09-21T22:14:47.977Z,3.00
2018-09-21T22:17:16.480Z,2.50
2018-09-21T22:19:44.958Z,2.23
2018-09-21T22:22:13.453Z,2.77
2018-09-21T22:24:41.944Z,2.63
2018-09-21T22:27:10.445Z,2.13
2018-09-21T22:29:38.966Z,2.73
2018-09-21T22:32:07.473Z,2.17
2018-09-21T22:34:35.940Z,2.40
2018-09-21T22:37:04.463Z,2.30
2018-09-21T22:39:32.933Z,3.33
2018-09-21T22:42:01.468Z,2.80
2018-09-21T22:44:29.949Z,2.10
2018-09-21T22:46:58.449Z,3.17
2018-09-21T22:49:26.944Z,2.37
2018-09-21T22:51:55.425Z,2.00
2018-09-21T22:54:23.964Z,1.70
2018-09-21T22:56:52.424Z,2.00
2018-09-21T22:59:20.907Z,2.50
2018-09-21T23:01:49.408Z,2.37
2018-09-21T23:04:17.909Z,2.70
2018-09-21T23:06:46.480Z,6.23
2018-09-21T23:09:15.037Z,17.60
2018-09-21T23:11:43.541Z,28.07
2018-09-21T23:14:12.047Z,17.03
2018-09-21T23:16:40.863Z,12.97
2018-09-21T23:19:09.797Z,15.53
2018-09-21T23:21:38.489Z,9.60
2018-09-21T23:24:07.226Z,8.73
2018-09-21T23:26:35.712Z,9.40
2018-09-21T23:29:04.186Z,8.63
2018-09-21T23:31:32.755Z,7.87
2018-09-21T23:34:01.207Z,5.73
2018-09-21T23:36:29.707Z,6.47
2018-09-21T23:38:59.220Z,5.57
2018-09-21T23:41:27.702Z,5.40
2018-09-21T23:43:56.184Z,4.50
2018-09-21T23:46:24.691Z,3.77
2018-09-21T23:48:53.132Z,4.70
2018-09-21T23:51:21.628Z,4.30
2018-09-21T23:53:50.121Z,3.17
2018-09-21T23:56:18.669Z,3.77
2018-09-21T23:58:47.328Z,4.13
